Time;durP1;ratioP1;P1;durP2;ratioP2;P2;SDS_P1;SDS_P2;PMS_P1;PMS_P2;Temp;Humidity;BMP_temperature;BMP_pressure;BME280_temperature;BME280_humidity;BME280_pressure;Samples;Min_cycle;Max_cycle;Signal;HPM_P1;HPM_P2
2023/04/23 00:01:07;;;;;;;33.88;18.63;;;;;;;10.39;47.32;98121.84;5011021;28;20531;-72
2023/04/23 00:03:34;;;;;;;36.75;19.88;;;;;;;10.39;48.07;98121.84;5011201;28;20069;-73
2023/04/23 00:06:04;;;;;;;36.58;19.42;;;;;;;10.39;47.53;98117.16;5011157;28;20022;-72
2023/04/23 00:08:31;;;;;;;47.42;22.60;;;;;;;10.38;47.85;98118.25;5011232;28;20025;-72
2023/04/23 00:10:57;;;;;;;46.60;22.98;;;;;;;10.37;48.52;98119.38;5011213;28;20034;-72
2023/04/23 00:13:22;;;;;;;44.40;23.00;;;;;;;10.37;48.22;98115.81;5011271;28;20018;-72
2023/04/23 00:15:48;;;;;;;40.47;20.88;;;;;;;10.35;48.64;98115.28;5011215;28;20023;-72
2023/04/23 00:18:15;;;;;;;39.15;20.02;;;;;;;10.34;48.74;98119.16;4993770;28;20387;-72
2023/04/23 00:20:41;;;;;;;37.55;20.60;;;;;;;10.32;48.68;98122.22;4993503;28;20018;-73
2023/04/23 00:23:06;;;;;;;42.03;20.30;;;;;;;10.31;47.99;98114.28;5011174;28;20372;-71
2023/04/23 00:25:32;;;;;;;34.75;19.58;;;;;;;10.31;49.07;98117.00;5010308;28;20483;-72
2023/04/23 00:27:57;;;;;;;36.13;19.65;;;;;;;10.32;49.34;98110.41;5010652;28;20033;-71
2023/04/23 00:30:22;;;;;;;35.80;20.17;;;;;;;10.29;49.02;98106.38;5010935;28;20018;-71
2023/04/23 00:32:48;;;;;;;33.78;20.80;;;;;;;10.28;49.01;98105.53;5011105;28;20424;-71
2023/04/23 00:35:13;;;;;;;31.02;18.15;;;;;;;10.26;48.29;98105.03;5010810;28;20047;-71
2023/04/23 00:37:39;;;;;;;33.15;18.58;;;;;;;10.26;49.29;98104.22;5010471;28;20041;-71
2023/04/23 00:40:06;;;;;;;31.67;18.52;;;;;;;10.24;48.76;98104.50;4993213;28;20101;-71
2023/04/23 00:42:32;;;;;;;30.75;18.13;;;;;;;10.20;49.18;98103.50;5007010;28;20056;-72
2023/04/23 00:44:58;;;;;;;30.52;18.40;;;;;;;10.15;49.66;98094.56;5010985;28;20494;-71
2023/04/23 00:47:24;;;;;;;32.28;20.50;;;;;;;10.09;49.54;98091.13;5010880;28;20026;-72
2023/04/23 00:49:52;;;;;;;35.58;20.73;;;;;;;10.05;49.67;98095.56;5010662;28;20479;-71
2023/04/23 00:52:17;;;;;;;35.60;21.92;;;;;;;10.00;49.53;98096.47;5010552;28;20030;-72
2023/04/23 00:54:42;;;;;;;33.45;20.75;;;;;;;9.96;49.46;98095.47;5010641;28;20105;-73
2023/04/23 00:57:08;;;;;;;34.42;20.55;;;;;;;9.95;49.76;98102.06;5010679;28;20014;-72
2023/04/23 00:59:34;;;;;;;33.15;19.70;;;;;;;9.92;50.05;98103.44;5010710;28;20410;-73
2023/04/23 01:02:00;;;;;;;33.15;19.20;;;;;;;9.92;49.91;98102.66;5010494;28;20029;-73
2023/04/23 01:04:29;;;;;;;33.88;19.48;;;;;;;9.92;49.94;98106.19;5010379;28;20139;-72
2023/04/23 01:06:56;;;;;;;31.60;19.63;;;;;;;9.91;50.08;98103.75;5007685;28;20030;-73
2023/04/23 01:09:22;;;;;;;34.63;18.60;;;;;;;9.90;50.28;98104.88;5008717;28;20029;-72
2023/04/23 01:11:50;;;;;;;31.10;18.55;;;;;;;9.86;50.51;98101.91;5009402;28;20686;-72
2023/04/23 01:14:16;;;;;;;31.80;18.63;;;;;;;9.85;50.88;98103.03;5010314;28;20471;-72
2023/04/23 01:16:41;;;;;;;35.33;21.25;;;;;;;9.84;51.07;98104.13;5077604;28;20030;-73
2023/04/23 01:19:08;;;;;;;33.65;19.50;;;;;;;9.81;51.53;98100.09;4992273;28;20061;-73
2023/04/23 01:21:36;;;;;;;33.55;19.33;;;;;;;9.80;51.28;98103.09;5009729;28;20030;-72
2023/04/23 01:24:05;;;;;;;33.45;19.83;;;;;;;9.79;51.75;98096.81;5010006;28;20498;-72
2023/04/23 01:26:30;;;;;;;36.42;20.63;;;;;;;9.79;52.06;98098.75;5010188;28;20528;-73
2023/04/23 01:28:57;;;;;;;34.75;20.85;;;;;;;9.79;52.01;98096.81;5010083;28;20026;-72
2023/04/23 01:31:22;;;;;;;37.20;20.92;;;;;;;9.79;51.81;98099.56;5010347;28;20038;-73
2023/04/23 01:33:50;;;;;;;35.72;20.42;;;;;;;9.79;52.22;98105.03;5011486;28;20059;-73
2023/04/23 01:36:15;;;;;;;37.88;19.95;;;;;;;9.77;51.78;98099.06;5009507;28;20549;-72
2023/04/23 01:38:41;;;;;;;38.00;20.20;;;;;;;9.77;52.00;98096.31;5009954;28;20054;-73
2023/04/23 01:41:06;;;;;;;33.95;19.15;;;;;;;9.79;52.74;98091.34;5009859;28;20052;-73
2023/04/23 01:43:32;;;;;;;35.75;20.38;;;;;;;9.77;52.40;98098.25;5010595;28;20048;-71
2023/04/23 01:45:58;;;;;;;31.55;18.65;;;;;;;9.79;51.64;98093.25;5011163;28;20092;-74
2023/04/23 01:48:24;;;;;;;33.42;18.65;;;;;;;9.81;52.08;98096.50;5011312;28;20481;-73
2023/04/23 01:50:51;;;;;;;32.47;18.90;;;;;;;9.85;52.07;98099.47;5011113;28;20040;-72
2023/04/23 01:53:17;;;;;;;31.33;18.13;;;;;;;9.85;52.31;98089.31;5010869;28;20033;-74
2023/04/23 01:55:45;;;;;;;32.28;17.92;;;;;;;9.84;52.43;98093.19;5010399;28;20022;-72
2023/04/23 01:58:11;;;;;;;29.02;18.15;;;;;;;9.83;52.46;98091.56;5011110;28;20037;-73
2023/04/23 02:00:37;;;;;;;31.42;18.67;;;;;;;9.80;52.55;98089.41;5010803;28;20034;-72
2023/04/23 02:03:02;;;;;;;28.58;17.65;;;;;;;9.80;53.30;98090.25;5010953;28;20050;-73
2023/04/23 02:05:28;;;;;;;33.55;20.23;;;;;;;9.77;52.46;98090.84;5011183;28;20459;-72
2023/04/23 02:07:54;;;;;;;33.70;19.98;;;;;;;9.73;52.92;98081.59;5010354;28;20033;-73
2023/04/23 02:10:20;;;;;;;32.95;19.23;;;;;;;9.70;53.27;98087.66;5010970;28;20422;-73
2023/04/23 02:12:47;;;;;;;33.47;20.30;;;;;;;9.66;53.09;98089.38;5006500;28;20139;-73
2023/04/23 02:15:13;;;;;;;34.42;20.38;;;;;;;9.64;53.21;98088.84;5005951;28;20091;-73
2023/04/23 02:17:39;;;;;;;31.52;20.48;;;;;;;9.61;52.88;98086.72;5006098;28;20573;-73
2023/04/23 02:20:09;;;;;;;33.03;20.20;;;;;;;9.59;54.37;98080.72;5007739;28;20391;-74
2023/04/23 02:22:36;;;;;;;34.42;19.63;;;;;;;9.57;53.55;98085.72;5007312;28;20079;-74
2023/04/23 02:25:02;;;;;;;30.35;19.50;;;;;;;9.55;53.69;98082.47;4988211;28;20495;-73
2023/04/23 02:27:27;;;;;;;34.88;19.58;;;;;;;9.53;53.57;98080.00;5006001;28;20392;-73
2023/04/23 02:29:53;;;;;;;29.92;19.30;;;;;;;9.53;53.81;98082.75;4988565;28;20109;-73
2023/04/23 02:32:18;;;;;;;30.25;18.73;;;;;;;9.50;53.28;98080.59;5005994;28;20495;-72
2023/04/23 02:34:45;;;;;;;33.28;19.83;;;;;;;9.47;53.65;98076.53;5002946;28;20026;-72
2023/04/23 02:37:10;;;;;;;34.55;19.70;;;;;;;9.46;53.94;98077.66;5005248;28;20108;-72
2023/04/23 02:39:37;;;;;;;30.63;19.13;;;;;;;9.44;53.70;98074.41;5005434;28;20589;-72
2023/04/23 02:42:03;;;;;;;32.20;19.60;;;;;;;9.42;53.77;98078.53;5004675;28;20055;-72
2023/04/23 02:44:29;;;;;;;31.02;19.40;;;;;;;9.37;54.05;98072.03;4986407;28;20041;-71
2023/04/23 02:46:55;;;;;;;29.10;18.65;;;;;;;9.34;53.71;98072.66;5005250;28;20038;-72
2023/04/23 02:49:20;;;;;;;29.85;18.95;;;;;;;9.28;54.24;98071.09;4986962;28;20041;-72
2023/04/23 02:51:45;;;;;;;29.88;19.00;;;;;;;9.24;54.23;98067.31;5003587;28;20030;-71
2023/04/23 02:54:11;;;;;;;31.27;19.10;;;;;;;9.20;54.30;98072.56;5004004;28;20065;-72
2023/04/23 02:56:37;;;;;;;30.73;18.40;;;;;;;9.16;54.77;98070.72;5003869;28;20041;-71
2023/04/23 02:59:02;;;;;;;29.02;19.08;;;;;;;9.13;54.18;98071.31;5004076;28;20110;-72
2023/04/23 03:01:28;;;;;;;31.05;19.52;;;;;;;9.09;54.36;98066.44;5003961;28;20064;-73
2023/04/23 03:03:53;;;;;;;31.00;18.85;;;;;;;9.07;54.42;98074.13;5003667;28;20049;-73
2023/04/23 03:06:19;;;;;;;33.17;20.08;;;;;;;9.05;54.43;98076.34;5004206;28;20038;-73
2023/04/23 03:08:44;;;;;;;29.48;19.35;;;;;;;9.04;54.08;98073.91;5004221;28;20038;-73
2023/04/23 03:11:10;;;;;;;31.17;19.25;;;;;;;8.99;54.56;98069.31;5004257;28;20037;-73
2023/04/23 03:13:35;;;;;;;27.92;19.13;;;;;;;8.97;54.77;98077.00;5005580;28;20125;-74
2023/04/23 03:16:01;;;;;;;30.65;19.75;;;;;;;8.91;55.10;98073.53;5005409;28;20467;-74
2023/04/23 03:18:26;;;;;;;31.50;19.30;;;;;;;8.89;54.90;98072.22;5004384;28;20098;-74
2023/04/23 03:20:52;;;;;;;29.83;18.20;;;;;;;8.84;55.28;98061.34;4986337;28;20030;-74
2023/04/23 03:23:17;;;;;;;30.33;18.67;;;;;;;8.81;55.04;98073.66;4986638;28;20034;-74
2023/04/23 03:25:42;;;;;;;28.27;17.92;;;;;;;8.77;55.39;98067.97;5004351;28;20129;-74
2023/04/23 03:28:08;;;;;;;28.05;18.95;;;;;;;8.75;55.74;98069.41;5004308;28;20022;-73
2023/04/23 03:30:35;;;;;;;29.95;18.33;;;;;;;8.71;55.51;98069.16;5004149;28;20044;-74
2023/04/23 03:33:03;;;;;;;29.45;19.13;;;;;;;8.68;55.70;98074.41;5004665;28;20026;-74
2023/04/23 03:35:29;;;;;;;28.77;18.50;;;;;;;8.61;55.51;98072.84;5004708;28;20026;-74
2023/04/23 03:37:54;;;;;;;28.92;19.10;;;;;;;8.58;55.52;98067.13;5005241;28;20084;-74
2023/04/23 03:40:20;;;;;;;29.02;18.42;;;;;;;8.54;55.39;98072.38;5005250;28;20118;-74
2023/04/23 03:42:46;;;;;;;27.10;18.02;;;;;;;8.52;56.15;98079.25;5005111;28;20037;-74
2023/04/23 03:45:12;;;;;;;30.92;18.95;;;;;;;8.51;55.59;98077.63;5004175;28;20415;-74
2023/04/23 03:47:38;;;;;;;27.02;18.85;;;;;;;8.49;55.63;98073.25;5005731;28;20030;-74
2023/04/23 03:50:08;;;;;;;27.13;18.15;;;;;;;8.49;55.65;98077.91;4987180;28;20415;-74
2023/04/23 03:52:34;;;;;;;32.88;19.25;;;;;;;8.51;55.67;98077.63;5005386;28;20479;-74
2023/04/23 03:54:59;;;;;;;30.80;19.67;;;;;;;8.51;55.32;98077.63;5003856;28;20037;-75
2023/04/23 03:57:25;;;;;;;34.03;20.13;;;;;;;8.51;55.91;98074.88;5005233;28;20057;-74
2023/04/23 03:59:51;;;;;;;30.80;20.38;;;;;;;8.52;55.60;98074.59;5005017;28;20088;-75
2023/04/23 04:02:16;;;;;;;32.55;19.92;;;;;;;8.54;55.97;98085.25;5007898;28;20050;-74
2023/04/23 04:04:44;;;;;;;31.65;19.17;;;;;;;8.53;55.74;98083.63;5008233;28;20072;-74
2023/04/23 04:07:10;;;;;;;30.05;18.65;;;;;;;8.52;56.17;98082.78;5008693;28;20034;-75
2023/04/23 04:09:37;;;;;;;27.10;18.23;;;;;;;8.53;56.04;98087.16;5008040;28;20033;-75
2023/04/23 04:12:03;;;;;;;26.80;17.75;;;;;;;8.55;56.14;98081.41;5007705;28;20026;-74
2023/04/23 04:14:29;;;;;;;28.17;17.80;;;;;;;8.55;55.99;98089.59;5007626;28;20026;-74
2023/04/23 04:16:55;;;;;;;26.00;17.35;;;;;;;8.58;55.65;98089.00;5009004;28;20083;-74
2023/04/23 04:19:21;;;;;;;24.30;16.45;;;;;;;8.60;55.79;98084.88;5007597;28;20413;-74
2023/04/23 04:21:47;;;;;;;22.17;15.65;;;;;;;8.66;56.01;98084.81;5007662;28;20053;-74
2023/04/23 04:24:12;;;;;;;25.58;16.15;;;;;;;8.69;55.83;98084.22;4990181;28;20017;-74
2023/04/23 04:26:38;;;;;;;26.15;16.50;;;;;;;8.73;56.44;98075.13;5008220;28;20067;-74
2023/04/23 04:29:04;;;;;;;26.55;16.27;;;;;;;8.80;56.50;98077.50;5007446;28;20028;-74
2023/04/23 04:31:29;;;;;;;25.83;16.00;;;;;;;8.85;56.17;98079.38;4989309;28;20395;-74
2023/04/23 04:33:56;;;;;;;23.63;14.10;;;;;;;8.90;57.33;98085.56;4990055;28;20029;-74
2023/04/23 04:36:24;;;;;;;20.70;14.50;;;;;;;8.93;56.84;98089.66;5007851;28;20026;-74
2023/04/23 04:38:54;;;;;;;20.52;13.82;;;;;;;8.97;57.36;98084.41;5007173;28;20026;-74
2023/04/23 04:41:21;;;;;;;22.42;14.13;;;;;;;9.01;57.54;98079.97;5007447;28;20501;-74
2023/04/23 04:43:47;;;;;;;20.95;13.90;;;;;;;9.05;57.58;98084.53;5007539;28;20034;-74
2023/04/23 04:46:13;;;;;;;24.45;15.20;;;;;;;9.08;57.85;98074.94;5007781;28;20026;-74
2023/04/23 04:48:38;;;;;;;21.50;14.07;;;;;;;9.13;57.73;98080.34;5007715;28;20646;-74
2023/04/23 04:51:04;;;;;;;22.10;14.07;;;;;;;9.18;57.55;98083.00;5007214;28;20056;-74
2023/04/23 04:53:29;;;;;;;21.38;14.30;;;;;;;9.24;57.14;98081.81;5007605;28;20034;-74
2023/04/23 04:55:55;;;;;;;19.00;12.98;;;;;;;9.30;57.27;98081.72;5007554;28;20030;-74
2023/04/23 04:58:20;;;;;;;19.33;12.40;;;;;;;9.34;57.47;98080.03;5007808;28;20030;-74
2023/04/23 05:00:50;;;;;;;18.92;12.65;;;;;;;9.39;57.49;98077.22;5007192;28;20026;-74
2023/04/23 05:03:16;;;;;;;20.83;12.77;;;;;;;9.47;57.67;98084.75;5007273;28;20042;-74
2023/04/23 05:05:42;;;;;;;17.98;12.18;;;;;;;9.52;57.88;98081.94;5006546;28;20038;-75
2023/04/23 05:08:08;;;;;;;19.95;12.23;;;;;;;9.59;58.06;98077.97;5007096;28;20471;-72
2023/04/23 05:10:33;;;;;;;19.05;12.15;;;;;;;9.64;57.68;98077.91;4989211;28;20064;-74
2023/04/23 05:12:59;;;;;;;21.30;12.00;;;;;;;9.70;57.45;98070.44;5007856;28;20029;-75
2023/04/23 05:15:25;;;;;;;17.15;11.48;;;;;;;9.77;56.95;98076.34;5011392;28;20379;-73
2023/04/23 05:17:52;;;;;;;16.85;11.90;;;;;;;9.86;57.57;98080.00;5011984;28;20435;-73
2023/04/23 05:20:18;;;;;;;23.33;14.45;;;;;;;9.92;57.66;98078.78;4994112;28;20045;-73
2023/04/23 05:22:43;;;;;;;23.42;13.60;;;;;;;10.01;57.37;98078.09;5010728;28;20073;-73
2023/04/23 05:25:11;;;;;;;19.58;12.75;;;;;;;10.09;57.75;98072.72;5011491;28;20143;-73
2023/04/23 05:27:36;;;;;;;22.70;13.10;;;;;;;10.17;57.33;98076.72;5011352;28;20364;-73
2023/04/23 05:30:04;;;;;;;20.42;13.25;;;;;;;10.28;57.93;98077.34;5011467;28;20055;-73
2023/04/23 05:32:30;;;;;;;17.13;11.48;;;;;;;10.38;57.46;98073.56;5011284;28;20026;-73
2023/04/23 05:34:56;;;;;;;16.88;11.02;;;;;;;10.47;57.31;98080.00;4991430;28;20186;-73
2023/04/23 05:37:21;;;;;;;17.50;11.48;;;;;;;10.58;57.74;98075.13;5006721;28;20030;-73
2023/04/23 05:39:47;;;;;;;17.80;10.63;;;;;;;10.68;56.86;98074.09;5006087;28;20111;-73
2023/04/23 05:42:12;;;;;;;13.20;10.27;;;;;;;10.79;57.30;98069.22;5006613;28;20083;-73
2023/04/23 05:44:40;;;;;;;18.25;11.10;;;;;;;10.88;56.66;98075.59;5006726;28;20117;-74
2023/04/23 05:47:06;;;;;;;16.73;10.82;;;;;;;10.99;57.00;98076.19;4973357;28;20042;-73
2023/04/23 05:49:31;;;;;;;13.18;9.40;;;;;;;11.11;56.83;98081.13;4988774;28;20208;-73
2023/04/23 05:51:58;;;;;;;14.10;8.85;;;;;;;11.23;56.56;98073.16;5006653;28;20073;-73
2023/04/23 05:54:23;;;;;;;14.85;9.75;;;;;;;11.35;56.28;98078.13;5006619;28;20041;-73
2023/04/23 05:56:49;;;;;;;13.68;8.63;;;;;;;11.47;56.06;98072.06;5006389;28;20052;-73
2023/04/23 05:59:15;;;;;;;15.05;9.40;;;;;;;11.59;55.92;98080.56;5006234;28;20060;-73
2023/04/23 06:01:41;;;;;;;15.35;10.30;;;;;;;11.70;55.99;98078.38;5009610;28;20376;-73
2023/04/23 06:04:06;;;;;;;18.50;11.88;;;;;;;11.81;56.12;98081.66;5010271;28;20049;-73
2023/04/23 06:06:32;;;;;;;18.52;11.73;;;;;;;11.92;55.80;98079.47;5010719;28;20022;-74
2023/04/23 06:08:57;;;;;;;14.52;10.10;;;;;;;12.01;55.22;98080.34;4993627;28;20022;-73
2023/04/23 06:11:23;;;;;;;14.30;9.30;;;;;;;12.13;54.57;98071.50;4975584;28;20026;-72
2023/04/23 06:13:48;;;;;;;11.95;8.65;;;;;;;12.24;54.64;98076.75;5007718;28;20045;-73
2023/04/23 06:16:14;;;;;;;14.98;10.13;;;;;;;12.34;54.54;98081.97;5004911;28;20033;-73
2023/04/23 06:18:39;;;;;;;11.88;8.98;;;;;;;12.43;54.38;98079.25;5008215;28;20041;-73
2023/04/23 06:21:05;;;;;;;16.60;9.20;;;;;;;12.54;54.49;98086.09;5010423;28;20115;-73
2023/04/23 06:23:31;;;;;;;12.10;8.90;;;;;;;12.66;53.71;98079.97;5009628;28;20033;-74
2023/04/23 06:25:57;;;;;;;12.38;8.80;;;;;;;12.75;53.87;98074.50;5009843;28;20075;-74
2023/04/23 06:28:22;;;;;;;14.50;9.38;;;;;;;12.85;53.50;98076.13;5007916;28;20118;-74
2023/04/23 06:30:48;;;;;;;14.77;10.05;;;;;;;12.95;53.35;98073.06;5007556;28;20025;-74
2023/04/23 06:33:14;;;;;;;14.77;9.68;;;;;;;13.05;53.46;98077.44;5010362;28;20487;-74
2023/04/23 06:35:39;;;;;;;13.13;9.63;;;;;;;13.13;53.64;98078.59;4993003;28;20121;-74
2023/04/23 06:38:05;;;;;;;15.73;10.00;;;;;;;13.24;53.39;98075.22;5010448;28;20030;-73
2023/04/23 06:40:31;;;;;;;12.63;9.38;;;;;;;13.35;53.46;98070.19;5010173;28;20108;-73
2023/04/23 06:42:57;;;;;;;12.45;9.20;;;;;;;13.48;53.33;98064.88;5010350;28;20028;-73
2023/04/23 06:45:22;;;;;;;13.15;9.45;;;;;;;13.58;52.99;98066.47;5010398;28;20041;-73
2023/04/23 06:47:48;;;;;;;14.00;10.15;;;;;;;13.67;53.20;98065.31;5010366;28;20022;-72
2023/04/23 06:50:14;;;;;;;13.63;10.10;;;;;;;13.78;52.68;98064.97;5010232;28;20056;-72
2023/04/23 06:52:40;;;;;;;15.00;8.73;;;;;;;13.87;52.01;98065.78;4992829;28;20030;-72
2023/04/23 06:55:06;;;;;;;13.77;8.60;;;;;;;13.98;52.37;98060.72;5010397;28;20424;-73
2023/04/23 06:57:32;;;;;;;11.10;7.93;;;;;;;14.08;51.93;98062.31;5009471;28;20103;-72
2023/04/23 06:59:57;;;;;;;11.68;7.72;;;;;;;14.16;51.93;98064.22;5010261;28;20449;-72
2023/04/23 07:02:23;;;;;;;12.35;7.90;;;;;;;14.26;51.60;98061.13;5008751;28;20042;-73
2023/04/23 07:04:48;;;;;;;12.50;8.50;;;;;;;14.37;51.65;98063.53;5018516;28;20450;-72
2023/04/23 07:07:14;;;;;;;12.25;8.32;;;;;;;14.47;51.21;98059.56;5009410;28;20034;-73
2023/04/23 07:09:39;;;;;;;10.90;8.45;;;;;;;14.55;51.24;98058.72;5009080;28;20162;-73
2023/04/23 07:12:05;;;;;;;13.68;8.70;;;;;;;14.62;51.19;98058.19;5046419;28;20022;-73
2023/04/23 07:14:31;;;;;;;14.13;8.27;;;;;;;14.72;50.90;98060.59;5001283;28;20041;-72
2023/04/23 07:16:57;;;;;;;11.32;8.00;;;;;;;14.81;51.00;98055.03;5030023;28;20027;-72
2023/04/23 07:19:23;;;;;;;13.48;8.10;;;;;;;14.94;50.60;98047.63;5008939;28;20026;-72
2023/04/23 07:21:48;;;;;;;12.82;7.65;;;;;;;15.06;50.41;98052.44;5007895;28;20034;-72
2023/04/23 07:24:14;;;;;;;10.30;7.07;;;;;;;15.17;50.43;98053.63;5008592;28;20018;-72
2023/04/23 07:26:39;;;;;;;12.07;7.20;;;;;;;15.26;50.21;98046.09;5007922;28;20328;-70
2023/04/23 07:29:06;;;;;;;9.95;6.82;;;;;;;15.38;49.73;98044.56;5009063;28;20040;-71
2023/04/23 07:31:32;;;;;;;8.63;6.50;;;;;;;15.47;50.11;98048.84;5008687;28;20022;-69
2023/04/23 07:33:57;;;;;;;11.05;6.13;;;;;;;15.57;49.56;98044.84;5008781;28;20143;-70
2023/04/23 07:36:23;;;;;;;7.60;6.18;;;;;;;15.65;49.01;98040.41;5011713;28;20032;-70
2023/04/23 07:38:49;;;;;;;9.82;6.20;;;;;;;15.77;48.22;98039.63;5011937;28;20025;-70
2023/04/23 07:41:15;;;;;;;8.50;5.97;;;;;;;15.87;48.55;98035.63;5011739;28;20052;-71
2023/04/23 07:43:41;;;;;;;9.63;6.07;;;;;;;15.93;48.47;98039.81;5011745;28;20642;-71
2023/04/23 07:46:07;;;;;;;9.13;5.40;;;;;;;16.02;47.52;98040.53;4994033;28;20030;-71
2023/04/23 07:48:33;;;;;;;7.43;5.43;;;;;;;16.11;47.54;98043.19;5011609;28;20067;-71
2023/04/23 07:51:00;;;;;;;6.88;5.13;;;;;;;16.22;46.24;98036.06;5011608;28;20111;-71
2023/04/23 07:53:27;;;;;;;8.55;4.90;;;;;;;16.31;46.52;98030.41;5011770;28;20371;-71
2023/04/23 07:55:54;;;;;;;9.75;5.18;;;;;;;16.40;47.04;98030.28;5011403;28;20029;-71
2023/04/23 07:58:19;;;;;;;6.50;4.60;;;;;;;16.54;46.22;98029.94;5007834;28;20429;-72
2023/04/23 08:00:45;;;;;;;9.02;5.07;;;;;;;16.65;46.33;98033.88;5011527;28;20134;-71
2023/04/23 08:03:10;;;;;;;7.05;4.82;;;;;;;16.74;46.65;98035.72;5011311;28;20038;-71
2023/04/23 08:05:37;;;;;;;9.95;5.03;;;;;;;16.81;45.92;98030.41;5011355;28;20519;-71
2023/04/23 08:08:02;;;;;;;8.05;5.00;;;;;;;16.89;46.16;98025.88;5013259;28;20042;-71
2023/04/23 08:10:28;;;;;;;9.10;5.35;;;;;;;17.01;46.48;98020.34;4993658;28;20014;-71
2023/04/23 08:12:53;;;;;;;8.68;5.00;;;;;;;17.20;46.81;98028.03;5011286;28;20082;-72
2023/04/23 08:15:19;;;;;;;6.63;4.43;;;;;;;17.35;44.75;98029.25;5011196;28;20113;-71
2023/04/23 08:17:44;;;;;;;4.53;3.85;;;;;;;17.41;43.75;98022.28;5010030;28;20372;-71
2023/04/23 08:20:10;;;;;;;6.78;4.18;;;;;;;17.52;44.78;98013.47;5011144;28;20029;-72
2023/04/23 08:22:35;;;;;;;5.88;4.22;;;;;;;17.61;44.51;98016.09;5007068;28;20070;-71
2023/04/23 08:25:01;;;;;;;8.15;4.80;;;;;;;17.63;44.13;98014.56;5010950;28;20360;-71
2023/04/23 08:27:26;;;;;;;6.85;4.78;;;;;;;17.66;43.79;98013.06;5011151;28;20014;-71
2023/04/23 08:29:51;;;;;;;7.63;5.00;;;;;;;17.77;43.93;98013.34;5011110;28;20108;-72
2023/04/23 08:32:17;;;;;;;4.55;3.75;;;;;;;17.91;43.25;98010.97;5011007;28;20079;-71
2023/04/23 08:34:42;;;;;;;4.32;3.67;;;;;;;18.06;43.32;98014.13;4993223;28;20030;-71
2023/04/23 08:37:08;;;;;;;6.25;3.50;;;;;;;18.14;40.85;98025.03;5011042;28;20428;-71
2023/04/23 08:39:34;;;;;;;4.97;3.63;;;;;;;18.17;40.98;98011.59;5010887;28;20519;-71
2023/04/23 08:42:08;;;;;;;4.15;3.60;;;;;;;18.22;41.65;98014.94;5010852;28;20022;-71
2023/04/23 08:44:36;;;;;;;5.72;3.50;;;;;;;18.26;41.40;98001.13;5010871;28;20099;-71
2023/04/23 08:47:06;;;;;;;9.13;4.10;;;;;;;18.36;40.46;98002.56;5010205;28;20551;-71
2023/04/23 08:49:34;;;;;;;5.47;3.63;;;;;;;18.48;40.23;98001.66;5007651;28;20025;-70
2023/04/23 08:52:21;;;;;;;5.18;3.65;;;;;;;18.54;39.96;98003.81;5011212;28;20030;-70
2023/04/23 08:54:53;;;;;;;6.70;3.75;;;;;;;18.60;40.31;97996.81;5010790;28;20022;-70
2023/04/23 08:57:19;;;;;;;4.25;3.10;;;;;;;18.60;40.12;97994.03;5007611;28;20022;-70
2023/04/23 08:59:46;;;;;;;4.03;2.97;;;;;;;18.60;39.31;98001.53;5010781;28;20033;-70
2023/04/23 09:02:13;;;;;;;5.20;3.72;;;;;;;18.55;38.76;98001.81;5010739;28;20037;-71
2023/04/23 09:04:39;;;;;;;4.35;3.30;;;;;;;18.54;38.70;97995.47;5022556;28;20090;-71
2023/04/23 09:07:10;;;;;;;5.55;3.38;;;;;;;18.48;38.90;97998.91;5010607;28;20029;-71
2023/04/23 09:09:40;;;;;;;7.50;3.78;;;;;;;18.43;39.04;97995.22;5010496;28;21335;-71
2023/04/23 09:12:07;;;;;;;6.20;3.65;;;;;;;18.47;38.72;97995.28;5010496;28;20036;-71
2023/04/23 09:14:33;;;;;;;7.93;3.83;;;;;;;18.56;39.01;97992.31;5010414;28;20386;-70
2023/04/23 09:16:59;;;;;;;6.75;3.92;;;;;;;18.66;39.17;97991.78;5010349;28;20022;-71
2023/04/23 09:19:29;;;;;;;5.40;3.72;;;;;;;18.72;39.63;97981.19;5010369;28;20022;-71
2023/04/23 09:21:56;;;;;;;5.43;3.53;;;;;;;18.77;39.69;97980.91;5010095;28;20391;-72
2023/04/23 09:24:22;;;;;;;6.43;4.15;;;;;;;18.81;38.95;97981.00;5009908;28;20025;-71
2023/04/23 09:26:49;;;;;;;5.55;3.45;;;;;;;18.82;39.32;97980.59;5010173;28;20033;-71
2023/04/23 09:29:17;;;;;;;6.13;3.60;;;;;;;18.91;39.70;97974.88;5010306;28;20369;-72
2023/04/23 09:31:48;;;;;;;6.68;3.55;;;;;;;19.02;39.31;97975.13;5010113;28;20481;-71
2023/04/23 09:34:17;;;;;;;6.65;3.22;;;;;;;19.18;38.84;97975.06;5010063;28;20026;-71
2023/04/23 09:36:43;;;;;;;6.35;3.65;;;;;;;19.28;39.03;97982.81;4992667;28;20018;-71
2023/04/23 09:39:21;;;;;;;6.18;3.80;;;;;;;19.37;39.01;97971.47;5009974;28;20036;-72
2023/04/23 09:41:46;;;;;;;7.85;3.67;;;;;;;19.44;39.15;97979.94;5010086;28;20018;-71
2023/04/23 09:44:17;;;;;;;6.35;3.60;;;;;;;19.49;38.62;97973.28;5009846;28;20502;-71
2023/04/23 09:46:43;;;;;;;6.68;3.80;;;;;;;19.61;37.36;97969.50;5010003;28;20022;-71
2023/04/23 09:49:10;;;;;;;5.22;3.58;;;;;;;19.72;38.65;97959.38;5009812;28;20047;-71
2023/04/23 09:51:38;;;;;;;6.45;3.20;;;;;;;19.88;38.84;97956.53;5009886;28;20026;-71
2023/04/23 09:54:09;;;;;;;5.20;3.55;;;;;;;20.01;37.73;97956.34;5005963;28;20543;-71
2023/04/23 09:56:35;;;;;;;4.55;3.50;;;;;;;20.17;37.95;97954.22;5009628;28;20060;-71
2023/04/23 09:59:00;;;;;;;4.85;3.25;;;;;;;20.27;37.65;97946.41;5008616;28;20065;-71
2023/04/23 10:01:29;;;;;;;4.55;3.67;;;;;;;20.31;35.85;97947.25;5009743;28;20458;-72
2023/04/23 10:03:55;;;;;;;5.10;3.40;;;;;;;20.33;36.05;97944.91;5005815;28;20042;-72
2023/04/23 10:06:30;;;;;;;7.22;4.35;;;;;;;20.36;36.51;97946.94;5009568;28;20033;-72
2023/04/23 10:08:56;;;;;;;5.25;3.70;;;;;;;20.34;36.43;97941.78;5009510;28;20037;-71
2023/04/23 10:11:24;;;;;;;4.97;3.63;;;;;;;20.33;36.24;97937.38;5010877;28;20022;-71
2023/04/23 10:13:50;;;;;;;5.53;3.60;;;;;;;20.33;35.32;97936.56;5013274;28;20026;-71
2023/04/23 10:16:17;;;;;;;5.35;3.47;;;;;;;20.37;36.49;97935.44;5098939;28;20489;-71
2023/04/23 10:18:43;;;;;;;5.13;3.35;;;;;;;20.44;36.29;97937.53;5030542;28;20029;-70
2023/04/23 10:21:10;;;;;;;4.85;3.50;;;;;;;20.44;35.76;97926.38;5030403;28;20025;-71
2023/04/23 10:23:37;;;;;;;4.55;3.35;;;;;;;20.48;35.55;97937.56;5030320;28;20115;-71
2023/04/23 10:26:04;;;;;;;8.57;4.35;;;;;;;20.56;36.24;97925.34;5011460;28;20091;-72
2023/04/23 10:28:32;;;;;;;9.15;5.10;;;;;;;20.67;36.45;97917.97;5010844;28;20083;-72
2023/04/23 10:30:58;;;;;;;7.10;4.15;;;;;;;20.85;36.08;97913.84;5029930;28;20060;-71
2023/04/23 10:33:27;;;;;;;7.90;4.53;;;;;;;21.01;36.33;97905.25;5010861;28;20063;-71
2023/04/23 10:35:55;;;;;;;7.40;4.38;;;;;;;21.11;36.25;97905.38;5020310;28;20038;-71
2023/04/23 10:38:22;;;;;;;5.40;4.20;;;;;;;21.21;35.74;97903.91;5030348;28;20101;-72
2023/04/23 10:40:50;;;;;;;6.43;4.22;;;;;;;21.21;35.83;97906.69;5010833;28;20091;-71
2023/04/23 10:43:17;;;;;;;7.63;4.28;;;;;;;21.16;35.45;97903.44;5009920;28;20026;-71
2023/04/23 10:45:43;;;;;;;6.25;3.45;;;;;;;21.12;35.10;97906.19;5009590;28;20026;-72
2023/04/23 10:48:08;;;;;;;6.20;4.10;;;;;;;21.18;35.59;97910.25;5010368;28;20451;-71
2023/04/23 10:50:35;;;;;;;5.35;3.60;;;;;;;21.20;35.84;97905.06;5008648;28;20101;-72
2023/04/23 10:53:02;;;;;;;5.10;3.50;;;;;;;21.27;35.48;97898.78;5009043;28;20018;-72
2023/04/23 10:55:29;;;;;;;5.65;4.40;;;;;;;21.32;35.41;97908.78;5005093;28;20024;-72
2023/04/23 10:57:58;;;;;;;7.45;4.57;;;;;;;21.40;35.01;97905.69;5008786;28;20032;-71
2023/04/23 11:00:25;;;;;;;5.53;3.88;;;;;;;21.44;35.17;97900.16;4991528;28;20473;-72
2023/04/23 11:02:52;;;;;;;7.10;4.70;;;;;;;21.49;35.68;97896.22;5007841;28;20046;-71
2023/04/23 11:05:17;;;;;;;4.47;3.50;;;;;;;21.58;35.38;97896.72;5006671;28;20030;-72
2023/04/23 11:08:02;;;;;;;5.13;3.60;;;;;;;21.66;35.09;97889.22;4988937;28;20026;-71
2023/04/23 11:10:27;;;;;;;6.95;3.70;;;;;;;21.70;34.81;97898.44;5010821;28;20041;-69
2023/04/23 11:12:55;;;;;;;5.72;3.70;;;;;;;21.66;34.79;97892.84;5011581;28;20022;-70
2023/04/23 11:15:20;;;;;;;4.82;3.85;;;;;;;21.59;34.68;97895.53;5009578;28;20037;-72
2023/04/23 11:17:47;;;;;;;5.60;4.38;;;;;;;21.50;34.44;97895.03;5009598;28;20025;-74
2023/04/23 11:20:13;;;;;;;6.50;4.95;;;;;;;21.42;34.44;97880.22;5009439;28;20468;-72
2023/04/23 11:22:41;;;;;;;4.68;3.78;;;;;;;21.44;33.87;97877.03;5057204;28;20048;-73